createdAt,value
2022-10-25T01:13:28.394Z,78.78
2022-10-25T01:16:11.468Z,78.63
2022-10-25T01:19:06.168Z,78.70
2022-10-25T01:21:47.520Z,78.65
2022-10-25T01:24:53.446Z,78.58
2022-10-25T01:28:15.707Z,78.46
2022-10-25T01:31:22.406Z,78.76
2022-10-25T01:34:03.222Z,78.80
2022-10-25T01:36:52.626Z,78.63
2022-10-25T01:39:31.052Z,78.61
2022-10-25T01:42:09.546Z,78.66
2022-10-25T01:45:21.297Z,78.64
2022-10-25T01:48:10.035Z,78.76
2022-10-25T01:50:47.633Z,78.72
2022-10-25T01:53:18.275Z,78.60
2022-10-25T01:55:59.652Z,78.63
2022-10-25T01:58:48.249Z,78.51
2022-10-25T02:01:30.427Z,78.64
2022-10-25T02:04:08.531Z,78.77
2022-10-25T02:06:49.066Z,78.80
2022-10-25T02:09:34.992Z,78.62
2022-10-25T02:12:09.512Z,78.58
2022-10-25T02:14:42.127Z,78.58
2022-10-25T02:17:21.135Z,78.43
2022-10-25T02:19:59.214Z,78.49
2022-10-25T02:22:33.306Z,78.53
2022-10-25T02:25:03.762Z,78.47
2022-10-25T02:27:35.534Z,78.44
2022-10-25T02:30:07.195Z,78.39
2022-10-25T02:32:37.987Z,78.44
2022-10-25T02:35:16.314Z,78.45
2022-10-25T02:37:47.103Z,78.38
2022-10-25T02:40:18.012Z,78.34
2022-10-25T02:42:48.241Z,78.37
2022-10-25T02:45:18.526Z,78.19
2022-10-25T02:47:49.214Z,78.28
2022-10-25T02:50:19.995Z,78.23
2022-10-25T02:52:50.346Z,78.40
2022-10-25T02:55:20.745Z,78.32
2022-10-25T02:57:51.074Z,78.42
2022-10-25T03:00:21.563Z,78.36
2022-10-25T03:02:57.137Z,78.31
2022-10-25T03:05:27.510Z,78.25
2022-10-25T03:07:57.932Z,78.34
2022-10-25T03:10:28.321Z,78.23
2022-10-25T03:12:58.901Z,78.22
2022-10-25T03:15:33.331Z,78.25
2022-10-25T03:18:03.842Z,78.34
2022-10-25T03:20:34.392Z,78.18
2022-10-25T03:23:05.170Z,78.16
2022-10-25T03:25:35.625Z,78.08
2022-10-25T03:28:06.132Z,78.17
2022-10-25T03:30:37.131Z,78.18
2022-10-25T03:33:08.813Z,78.22
2022-10-25T03:35:39.432Z,78.21
2022-10-25T03:38:09.972Z,78.01
2022-10-25T03:40:40.512Z,78.05
2022-10-25T03:43:11.153Z,78.06
2022-10-25T03:45:41.732Z,78.07
2022-10-25T03:48:12.413Z,78.03
2022-10-25T03:50:43.432Z,78.08
2022-10-25T03:53:13.890Z,78.10
2022-10-25T03:55:44.262Z,77.91
2022-10-25T03:58:16.593Z,77.85
2022-10-25T04:00:47.144Z,77.81
2022-10-25T04:03:17.622Z,77.81
2022-10-25T04:05:47.991Z,77.99
2022-10-25T04:08:18.492Z,77.78
2022-10-25T04:10:49.046Z,77.72
2022-10-25T04:13:19.737Z,77.69
2022-10-25T04:15:50.089Z,77.63
2022-10-25T04:18:21.369Z,77.52
2022-10-25T04:20:53.297Z,77.41
2022-10-25T04:23:23.713Z,77.53
2022-10-25T04:25:57.049Z,77.54
2022-10-25T04:28:29.768Z,77.32
2022-10-25T04:31:03.100Z,77.16
2022-10-25T04:33:33.493Z,77.06
2022-10-25T04:36:04.126Z,77.09
2022-10-25T04:38:37.068Z,77.10
2022-10-25T04:41:07.896Z,77.20
2022-10-25T04:43:38.595Z,77.25
2022-10-25T04:46:09.627Z,77.19
2022-10-25T04:48:41.266Z,77.12
2022-10-25T04:51:13.274Z,76.99
2022-10-25T04:53:43.857Z,76.87
2022-10-25T04:56:15.786Z,76.88
2022-10-25T04:58:46.293Z,76.96
2022-10-25T05:01:18.836Z,77.06
2022-10-25T05:03:49.646Z,77.08
2022-10-25T05:06:24.233Z,76.98
2022-10-25T05:08:55.633Z,76.93
